Time;durP1;ratioP1;P1;durP2;ratioP2;P2;SDS_P1;SDS_P2;PMS_P1;PMS_P2;Temp;Humidity;BMP_temperature;BMP_pressure;BME280_temperature;BME280_humidity;BME280_pressure;Samples;Min_cycle;Max_cycle;Signal;HPM_P1;HPM_P2
2022/06/29 00:01:19;;;;;;;15.63;5.57;;;;;;;;;;4994961;28;20785;-42
2022/06/29 00:03:45;;;;;;;15.40;4.97;;;;;;;;;;4993693;28;20502;-43
2022/06/29 00:06:12;;;;;;;11.30;5.00;;;;;;;;;;4992300;28;20283;-40
2022/06/29 00:08:38;;;;;;;12.83;4.73;;;;;;;;;;4993669;28;20533;-42
2022/06/29 00:11:04;;;;;;;10.37;4.23;;;;;;;;;;4990386;28;20366;-41
2022/06/29 00:13:33;;;;;;;15.47;4.50;;;;;;;;;;4993915;28;20997;-42
2022/06/29 00:16:00;;;;;;;10.40;4.30;;;;;;;;;;4990627;28;20896;-40
2022/06/29 00:18:26;;;;;;;15.37;4.97;;;;;;;;;;4992087;28;20208;-41
2022/06/29 00:20:52;;;;;;;12.87;4.87;;;;;;;;;;4987270;28;20204;-43
2022/06/29 00:23:19;;;;;;;13.13;4.83;;;;;;;;;;4986983;28;20246;-42
2022/06/29 00:25:46;;;;;;;12.93;5.07;;;;;;;;;;4994704;28;20176;-41
2022/06/29 00:28:12;;;;;;;15.63;5.13;;;;;;;;;;4994433;28;20270;-43
2022/06/29 00:30:38;;;;;;;16.10;5.03;;;;;;;;;;4997547;28;20181;-39
2022/06/29 00:33:04;;;;;;;13.90;5.27;;;;;;;;;;4996870;28;20604;-40
2022/06/29 00:35:31;;;;;;;17.07;5.83;;;;;;;;;;4994224;28;20485;-41
2022/06/29 00:37:57;;;;;;;18.20;5.93;;;;;;;;;;4994546;28;20204;-40
2022/06/29 00:40:23;;;;;;;15.37;5.67;;;;;;;;;;4992723;28;20183;-39
2022/06/29 00:42:49;;;;;;;18.23;6.43;;;;;;;;;;4995647;28;20172;-40
2022/06/29 00:45:15;;;;;;;17.73;6.90;;;;;;;;;;5000509;28;20184;-39
2022/06/29 00:47:41;;;;;;;14.17;5.63;;;;;;;;;;4996465;28;20271;-41
2022/06/29 00:50:07;;;;;;;20.63;6.67;;;;;;;;;;4998872;28;20191;-40
2022/06/29 00:52:37;;;;;;;16.97;6.63;;;;;;;;;;4998282;28;20176;-41
2022/06/29 00:55:06;;;;;;;18.97;6.73;;;;;;;;;;4998573;28;20287;-43
2022/06/29 00:57:33;;;;;;;17.43;6.93;;;;;;;;;;5000029;28;20208;-43
2022/06/29 01:00:00;;;;;;;17.87;7.30;;;;;;;;;;5002073;28;20180;-42
2022/06/29 01:02:35;;;;;;;17.90;7.40;;;;;;;;;;4996120;28;20184;-40
2022/06/29 01:05:02;;;;;;;21.20;7.93;;;;;;;;;;4996837;28;20561;-41
2022/06/29 01:07:29;;;;;;;19.33;7.40;;;;;;;;;;4998426;28;20183;-41
2022/06/29 01:09:56;;;;;;;17.47;7.10;;;;;;;;;;4993178;28;20605;-40
2022/06/29 01:12:22;;;;;;;15.27;7.90;;;;;;;;;;4998374;28;20177;-40
2022/06/29 01:14:50;;;;;;;20.57;9.20;;;;;;;;;;5000740;28;20190;-40
2022/06/29 01:17:17;;;;;;;18.87;7.93;;;;;;;;;;4999109;28;20196;-40
2022/06/29 01:19:44;;;;;;;19.60;7.73;;;;;;;;;;4995962;28;20234;-41
2022/06/29 01:22:10;;;;;;;19.47;7.87;;;;;;;;;;5001186;28;20176;-40
2022/06/29 01:24:37;;;;;;;14.20;7.37;;;;;;;;;;4996276;28;20253;-40
2022/06/29 01:27:03;;;;;;;20.27;7.70;;;;;;;;;;4998886;28;21035;-40
2022/06/29 01:29:30;;;;;;;16.30;7.97;;;;;;;;;;5002047;28;20470;-41
2022/06/29 01:31:56;;;;;;;17.00;9.00;;;;;;;;;;4994756;28;20180;-40
2022/06/29 01:34:25;;;;;;;24.60;10.27;;;;;;;;;;4998586;28;20180;-36
2022/06/29 01:36:52;;;;;;;20.97;9.90;;;;;;;;;;4996435;28;20181;-36
2022/06/29 01:39:18;;;;;;;21.43;9.90;;;;;;;;;;4998368;28;20747;-36
2022/06/29 01:41:44;;;;;;;24.47;10.50;;;;;;;;;;4996661;28;21364;-37
2022/06/29 01:44:10;;;;;;;21.63;9.70;;;;;;;;;;5000408;28;20761;-38
2022/06/29 01:46:36;;;;;;;16.07;8.63;;;;;;;;;;4995915;28;20185;-34
2022/06/29 01:49:03;;;;;;;19.07;7.90;;;;;;;;;;4998225;28;20306;-34
2022/06/29 01:51:29;;;;;;;16.83;7.30;;;;;;;;;;4997758;28;20414;-37
2022/06/29 01:53:55;;;;;;;17.97;7.47;;;;;;;;;;4997464;28;20662;-38
2022/06/29 01:56:21;;;;;;;19.17;7.00;;;;;;;;;;4996237;28;20621;-36
2022/06/29 01:58:47;;;;;;;19.80;7.70;;;;;;;;;;5000655;28;20204;-37
2022/06/29 02:01:14;;;;;;;18.80;7.33;;;;;;;;;;4998464;28;20680;-37
2022/06/29 02:03:40;;;;;;;15.73;7.53;;;;;;;;;;4997401;28;20180;-37
2022/06/29 02:06:06;;;;;;;15.83;8.47;;;;;;;;;;4992986;28;20677;-38
2022/06/29 02:08:33;;;;;;;13.60;7.33;;;;;;;;;;4998093;28;20184;-38
2022/06/29 02:11:00;;;;;;;18.27;8.73;;;;;;;;;;4996596;28;20176;-36
2022/06/29 02:13:26;;;;;;;17.07;8.33;;;;;;;;;;4998082;28;20186;-38
2022/06/29 02:15:52;;;;;;;18.27;7.53;;;;;;;;;;4997218;28;20992;-38
2022/06/29 02:18:19;;;;;;;16.53;7.70;;;;;;;;;;5000527;28;21335;-39
2022/06/29 02:20:45;;;;;;;16.20;7.90;;;;;;;;;;5001488;28;20188;-40
2022/06/29 02:23:11;;;;;;;20.83;9.00;;;;;;;;;;5003244;28;20306;-39
2022/06/29 02:25:37;;;;;;;19.90;8.40;;;;;;;;;;5001143;28;20254;-39
2022/06/29 02:28:04;;;;;;;16.30;8.37;;;;;;;;;;4995489;28;20664;-36
2022/06/29 02:35:59;;;;;;;18.03;8.77;;;;;;;;;;4999423;28;20593;-38
2022/06/29 02:38:25;;;;;;;19.83;9.07;;;;;;;;;;5004386;28;20727;-38
2022/06/29 02:40:51;;;;;;;15.47;8.00;;;;;;;;;;5002286;28;20196;-38
2022/06/29 02:43:17;;;;;;;13.77;7.27;;;;;;;;;;5000782;28;20579;-39
2022/06/29 02:45:43;;;;;;;17.53;9.90;;;;;;;;;;4999079;28;20931;-37
2022/06/29 02:48:09;;;;;;;24.37;10.83;;;;;;;;;;5000881;28;20612;-38
2022/06/29 02:50:36;;;;;;;19.70;10.37;;;;;;;;;;5000094;28;20189;-39
2022/06/29 02:53:02;;;;;;;19.40;11.20;;;;;;;;;;4998748;28;20240;-36
2022/06/29 02:55:28;;;;;;;22.53;10.93;;;;;;;;;;5000131;28;20295;-38
2022/06/29 02:57:54;;;;;;;18.83;9.93;;;;;;;;;;5002379;28;21421;-38
2022/06/29 03:00:20;;;;;;;21.73;10.03;;;;;;;;;;5002375;28;20186;-41
2022/06/29 03:02:46;;;;;;;16.67;8.70;;;;;;;;;;5001902;28;20524;-38
2022/06/29 03:05:12;;;;;;;17.40;8.63;;;;;;;;;;5002865;28;20181;-39
2022/06/29 03:07:38;;;;;;;21.47;8.90;;;;;;;;;;5003027;28;20180;-38
2022/06/29 03:10:05;;;;;;;18.23;8.63;;;;;;;;;;5000040;28;21619;-38
2022/06/29 03:12:31;;;;;;;18.00;8.47;;;;;;;;;;5001162;28;20617;-39
2022/06/29 03:14:57;;;;;;;18.67;9.07;;;;;;;;;;4997383;28;20181;-38
2022/06/29 03:17:23;;;;;;;16.73;8.23;;;;;;;;;;4994179;28;20188;-40
2022/06/29 03:19:49;;;;;;;19.87;8.73;;;;;;;;;;4997371;28;20176;-38
2022/06/29 03:22:15;;;;;;;20.60;9.70;;;;;;;;;;4998313;28;20712;-38
2022/06/29 03:24:41;;;;;;;18.73;9.30;;;;;;;;;;4993111;28;22051;-39
2022/06/29 03:27:07;;;;;;;19.73;10.83;;;;;;;;;;4997107;28;20176;-39
2022/06/29 03:29:33;;;;;;;23.13;11.20;;;;;;;;;;4998916;28;21195;-38
2022/06/29 03:31:59;;;;;;;21.80;10.80;;;;;;;;;;4995564;28;20282;-39
2022/06/29 03:34:25;;;;;;;18.70;9.50;;;;;;;;;;4997473;28;20854;-38
2022/06/29 03:36:52;;;;;;;18.57;9.57;;;;;;;;;;4999357;28;20190;-40
2022/06/29 03:39:18;;;;;;;20.30;8.83;;;;;;;;;;4995693;28;20875;-40
2022/06/29 03:41:44;;;;;;;16.50;8.93;;;;;;;;;;4997331;28;20569;-38
2022/06/29 03:44:10;;;;;;;20.43;8.13;;;;;;;;;;4999799;28;20176;-39
2022/06/29 03:46:36;;;;;;;17.77;8.20;;;;;;;;;;4999130;28;20647;-40
2022/06/29 03:49:02;;;;;;;18.97;7.50;;;;;;;;;;4993803;28;20466;-38
2022/06/29 03:51:28;;;;;;;17.23;7.67;;;;;;;;;;5001762;28;20176;-39
2022/06/29 03:53:54;;;;;;;14.83;7.57;;;;;;;;;;4999462;28;20233;-38
2022/06/29 03:56:21;;;;;;;18.63;7.90;;;;;;;;;;4998661;28;20185;-41
2022/06/29 03:58:47;;;;;;;14.00;8.37;;;;;;;;;;4998308;28;20566;-39
2022/06/29 04:01:13;;;;;;;17.53;7.50;;;;;;;;;;4999503;28;20176;-40
2022/06/29 04:03:39;;;;;;;20.20;7.77;;;;;;;;;;4996761;28;20866;-40
2022/06/29 04:06:06;;;;;;;17.00;7.70;;;;;;;;;;5000810;28;20426;-40
2022/06/29 04:08:33;;;;;;;14.50;6.43;;;;;;;;;;4996287;28;20176;-39
2022/06/29 04:10:59;;;;;;;16.03;7.57;;;;;;;;;;4991619;28;20441;-40
2022/06/29 04:13:25;;;;;;;17.07;7.50;;;;;;;;;;4995769;28;20743;-39
2022/06/29 04:15:51;;;;;;;18.93;7.40;;;;;;;;;;4998186;28;20187;-40
2022/06/29 04:18:17;;;;;;;16.70;7.80;;;;;;;;;;4997623;28;20277;-40
2022/06/29 04:23:28;;;;;;;20.60;7.40;;;;;;;;;;5000458;28;20187;-37
2022/06/29 04:25:54;;;;;;;20.10;8.27;;;;;;;;;;5001774;28;20211;-40
2022/06/29 04:28:20;;;;;;;13.57;6.57;;;;;;;;;;4995127;28;20187;-39
2022/06/29 04:30:46;;;;;;;22.13;8.50;;;;;;;;;;4998234;28;20213;-39
2022/06/29 04:33:12;;;;;;;17.47;7.60;;;;;;;;;;4994897;28;20179;-40
2022/06/29 04:35:38;;;;;;;17.03;7.13;;;;;;;;;;5000151;28;20585;-40
2022/06/29 04:38:04;;;;;;;20.80;7.27;;;;;;;;;;4998859;28;20239;-41
2022/06/29 04:40:30;;;;;;;15.17;7.23;;;;;;;;;;5000222;28;20191;-40
2022/06/29 04:42:56;;;;;;;16.57;7.17;;;;;;;;;;5000566;28;20164;-39
2022/06/29 04:48:07;;;;;;;15.60;8.10;;;;;;;;;;4992018;28;21021;-40
2022/06/29 04:50:33;;;;;;;22.10;8.90;;;;;;;;;;4999498;28;20215;-40
2022/06/29 04:52:59;;;;;;;19.80;8.20;;;;;;;;;;4997195;28;20208;-40
2022/06/29 04:55:28;;;;;;;16.17;7.83;;;;;;;;;;4997610;28;20169;-39
2022/06/29 04:57:54;;;;;;;23.37;9.00;;;;;;;;;;4996451;28;21237;-40
2022/06/29 05:00:20;;;;;;;19.87;8.80;;;;;;;;;;4998253;28;21189;-41
2022/06/29 05:02:46;;;;;;;19.93;8.50;;;;;;;;;;4992653;28;20192;-41
2022/06/29 05:05:12;;;;;;;17.60;7.50;;;;;;;;;;4993790;28;20535;-39
2022/06/29 05:07:38;;;;;;;21.93;7.53;;;;;;;;;;4998232;28;20517;-41
2022/06/29 05:10:05;;;;;;;18.10;6.77;;;;;;;;;;5001191;28;20180;-39
2022/06/29 05:12:31;;;;;;;21.93;8.13;;;;;;;;;;4997710;28;20511;-38
2022/06/29 05:14:57;;;;;;;15.97;7.53;;;;;;;;;;4999068;28;20409;-41
2022/06/29 05:17:23;;;;;;;19.93;7.80;;;;;;;;;;4996783;28;20938;-39
2022/06/29 05:19:49;;;;;;;15.43;6.80;;;;;;;;;;4995427;28;20183;-39
2022/06/29 05:22:15;;;;;;;19.13;8.10;;;;;;;;;;4989193;28;20176;-41
2022/06/29 05:24:41;;;;;;;18.47;7.63;;;;;;;;;;5003719;28;20175;-40
2022/06/29 05:27:07;;;;;;;18.03;7.83;;;;;;;;;;4995651;28;20168;-41
2022/06/29 05:29:34;;;;;;;20.10;8.00;;;;;;;;;;5000168;28;20498;-41
2022/06/29 05:32:00;;;;;;;18.03;9.03;;;;;;;;;;5001275;28;20289;-43
2022/06/29 05:34:26;;;;;;;20.60;8.83;;;;;;;;;;5005962;28;20459;-43
2022/06/29 05:36:52;;;;;;;21.43;9.73;;;;;;;;;;5001411;28;20487;-41
2022/06/29 05:39:18;;;;;;;17.50;8.43;;;;;;;;;;4998370;28;21803;-41
2022/06/29 05:41:44;;;;;;;20.10;8.33;;;;;;;;;;4998439;28;20172;-41
2022/06/29 05:44:11;;;;;;;15.10;8.20;;;;;;;;;;4999333;28;20837;-41
2022/06/29 05:46:37;;;;;;;21.23;8.90;;;;;;;;;;4997955;28;20326;-39
2022/06/29 05:49:03;;;;;;;16.30;8.20;;;;;;;;;;5000794;28;21036;-41
2022/06/29 05:51:29;;;;;;;18.83;9.10;;;;;;;;;;4997386;28;21167;-40
2022/06/29 05:53:55;;;;;;;20.07;9.03;;;;;;;;;;4996923;28;20176;-41
2022/06/29 05:56:22;;;;;;;22.93;9.07;;;;;;;;;;5001189;28;20177;-40
2022/06/29 05:58:49;;;;;;;17.90;8.40;;;;;;;;;;5003581;28;20192;-41
2022/06/29 06:01:15;;;;;;;19.73;8.43;;;;;;;;;;5001707;28;20257;-40
2022/06/29 06:03:41;;;;;;;18.93;8.27;;;;;;;;;;4998876;28;20537;-41
2022/06/29 06:06:07;;;;;;;18.77;8.13;;;;;;;;;;5005058;28;20176;-41
2022/06/29 06:08:33;;;;;;;18.63;8.17;;;;;;;;;;4998880;28;20172;-41
2022/06/29 06:11:01;;;;;;;15.40;7.03;;;;;;;;;;4998908;28;20286;-40
2022/06/29 06:13:27;;;;;;;21.67;7.60;;;;;;;;;;4998883;28;20269;-41
2022/06/29 06:15:53;;;;;;;16.27;7.10;;;;;;;;;;5004017;28;20181;-41
2022/06/29 06:18:19;;;;;;;20.63;7.93;;;;;;;;;;5002433;28;20203;-41
2022/06/29 06:20:45;;;;;;;19.93;7.90;;;;;;;;;;4999859;28;20299;-41
2022/06/29 06:23:11;;;;;;;19.43;8.37;;;;;;;;;;5005914;28;20287;-40
2022/06/29 06:25:37;;;;;;;15.80;8.07;;;;;;;;;;4999449;28;20180;-41
2022/06/29 06:28:05;;;;;;;15.97;7.97;;;;;;;;;;5004812;28;20959;-41
2022/06/29 06:30:32;;;;;;;15.63;7.50;;;;;;;;;;5000165;28;20188;-41
2022/06/29 06:32:58;;;;;;;16.60;7.20;;;;;;;;;;5000097;28;20589;-41
2022/06/29 06:35:24;;;;;;;18.13;7.50;;;;;;;;;;5000208;28;20184;-41
2022/06/29 06:37:52;;;;;;;20.63;6.97;;;;;;;;;;5003566;28;20663;-41
2022/06/29 06:43:03;;;;;;;13.93;7.37;;;;;;;;;;5001088;28;20578;-41
2022/06/29 06:45:29;;;;;;;17.23;7.30;;;;;;;;;;5001997;28;20758;-40
2022/06/29 06:47:55;;;;;;;15.97;7.00;;;;;;;;;;5000257;28;20189;-40
2022/06/29 06:50:22;;;;;;;16.23;7.00;;;;;;;;;;5002458;28;20311;-41
2022/06/29 06:52:48;;;;;;;17.17;7.23;;;;;;;;;;5005608;28;20398;-40
2022/06/29 06:55:14;;;;;;;17.63;8.37;;;;;;;;;;5003446;28;20258;-41
2022/06/29 06:57:41;;;;;;;17.43;8.13;;;;;;;;;;5001924;28;20234;-41
2022/06/29 07:00:07;;;;;;;16.57;8.33;;;;;;;;;;5004170;28;20188;-40
2022/06/29 07:02:33;;;;;;;19.30;8.37;;;;;;;;;;5003243;28;20205;-40
2022/06/29 07:04:59;;;;;;;20.50;8.27;;;;;;;;;;5000808;28;20287;-41
2022/06/29 07:07:25;;;;;;;18.97;8.13;;;;;;;;;;5005871;28;20548;-41
2022/06/29 07:09:51;;;;;;;13.97;7.30;;;;;;;;;;5003807;28;20695;-41
2022/06/29 07:12:17;;;;;;;18.63;8.17;;;;;;;;;;4999914;28;20805;-41
2022/06/29 07:14:43;;;;;;;22.97;8.30;;;;;;;;;;4996808;28;20459;-41
2022/06/29 07:17:09;;;;;;;17.07;7.87;;;;;;;;;;4998309;28;20223;-41
2022/06/29 07:19:35;;;;;;;13.60;6.57;;;;;;;;;;4998616;28;20419;-41
2022/06/29 07:22:02;;;;;;;12.63;5.30;;;;;;;;;;5001559;28;20183;-41
2022/06/29 07:24:28;;;;;;;16.80;6.23;;;;;;;;;;4997486;28;20740;-42
2022/06/29 07:26:56;;;;;;;13.70;5.70;;;;;;;;;;4999434;28;20177;-41
2022/06/29 07:29:22;;;;;;;12.50;5.13;;;;;;;;;;4999105;28;20378;-41
2022/06/29 07:31:48;;;;;;;12.97;5.33;;;;;;;;;;4998599;28;20283;-41
2022/06/29 07:34:14;;;;;;;16.23;5.23;;;;;;;;;;4994450;28;21061;-41
2022/06/29 07:36:40;;;;;;;13.57;5.20;;;;;;;;;;5000641;28;20215;-41
2022/06/29 07:39:06;;;;;;;15.10;5.03;;;;;;;;;;5002356;28;20432;-41
2022/06/29 07:41:32;;;;;;;13.10;5.40;;;;;;;;;;5003000;28;20176;-41
2022/06/29 07:43:59;;;;;;;11.40;4.80;;;;;;;;;;4999458;28;20640;-39
2022/06/29 07:46:25;;;;;;;16.10;4.97;;;;;;;;;;5004503;28;20847;-43
2022/06/29 07:48:51;;;;;;;19.10;4.90;;;;;;;;;;5003061;28;20184;-41
2022/06/29 07:51:17;;;;;;;11.40;4.53;;;;;;;;;;5003255;28;20176;-41
2022/06/29 07:53:43;;;;;;;15.37;4.33;;;;;;;;;;5003275;28;20498;-43
2022/06/29 07:56:10;;;;;;;13.20;4.40;;;;;;;;;;5002596;28;20181;-41
2022/06/29 07:58:36;;;;;;;9.33;3.93;;;;;;;;;;5000474;28;20619;-42
2022/06/29 08:01:02;;;;;;;10.07;3.77;;;;;;;;;;5001406;28;20382;-41
2022/06/29 08:03:28;;;;;;;10.43;4.00;;;;;;;;;;5003834;28;20395;-42
2022/06/29 08:05:54;;;;;;;13.57;4.07;;;;;;;;;;5001538;28;20187;-41
2022/06/29 08:08:20;;;;;;;14.10;4.03;;;;;;;;;;5004419;28;20378;-41
2022/06/29 08:10:46;;;;;;;12.37;3.40;;;;;;;;;;5001197;28;20640;-41
2022/06/29 08:13:12;;;;;;;14.07;4.03;;;;;;;;;;4996634;28;20176;-41
2022/06/29 08:15:38;;;;;;;10.17;3.50;;;;;;;;;;5000187;28;20609;-41
2022/06/29 08:18:04;;;;;;;10.07;3.10;;;;;;;;;;5001765;28;20277;-42
2022/06/29 08:20:31;;;;;;;13.67;4.17;;;;;;;;;;5002312;28;20762;-42
2022/06/29 08:22:57;;;;;;;12.97;3.47;;;;;;;;;;5004187;28;20203;-43
2022/06/29 08:25:23;;;;;;;13.70;3.40;;;;;;;;;;5000607;28;20646;-42
2022/06/29 08:27:53;;;;;;;9.53;3.50;;;;;;;;;;5001981;28;20181;-42
2022/06/29 08:30:19;;;;;;;10.37;3.40;;;;;;;;;;5002256;28;20274;-41
2022/06/29 08:32:45;;;;;;;12.17;3.67;;;;;;;;;;5005732;28;20188;-41
2022/06/29 08:35:12;;;;;;;10.97;3.40;;;;;;;;;;5002297;28;21093;-40
2022/06/29 08:37:38;;;;;;;10.53;3.30;;;;;;;;;;5011869;28;20424;-40
2022/06/29 08:40:05;;;;;;;11.47;4.00;;;;;;;;;;5007771;28;20183;-41
2022/06/29 08:42:33;;;;;;;14.93;3.67;;;;;;;;;;5001988;28;20508;-41
2022/06/29 08:44:59;;;;;;;10.40;3.60;;;;;;;;;;5001828;28;20666;-41
2022/06/29 08:47:25;;;;;;;9.53;3.40;;;;;;;;;;5001535;28;21072;-39
2022/06/29 08:49:51;;;;;;;9.67;3.10;;;;;;;;;;5003838;28;20484;-42
2022/06/29 08:52:19;;;;;;;17.33;4.00;;;;;;;;;;4999046;28;20827;-41
2022/06/29 08:54:48;;;;;;;9.43;3.37;;;;;;;;;;5000108;28;20176;-43
2022/06/29 08:57:15;;;;;;;9.33;3.30;;;;;;;;;;5002056;28;20192;-41
2022/06/29 08:59:42;;;;;;;10.07;3.97;;;;;;;;;;5001511;28;20200;-39
2022/06/29 09:02:09;;;;;;;9.23;3.30;;;;;;;;;;4999723;28;20628;-42
2022/06/29 09:04:35;;;;;;;13.00;4.10;;;;;;;;;;4999070;28;20604;-42
2022/06/29 09:07:01;;;;;;;11.40;4.00;;;;;;;;;;5009866;28;20182;-40
2022/06/29 09:09:27;;;;;;;11.50;3.90;;;;;;;;;;5009788;28;20188;-42
2022/06/29 09:11:54;;;;;;;10.70;3.97;;;;;;;;;;5006473;28;20189;-42
2022/06/29 09:14:21;;;;;;;11.67;3.67;;;;;;;;;;5008373;28;20292;-41
2022/06/29 09:16:49;;;;;;;12.40;3.67;;;;;;;;;;5010141;28;20423;-41
2022/06/29 09:19:16;;;;;;;9.87;3.50;;;;;;;;;;4998024;28;20208;-41
2022/06/29 09:21:46;;;;;;;10.67;3.70;;;;;;;;;;4998474;28;20806;-41
2022/06/29 09:24:15;;;;;;;12.37;3.43;;;;;;;;;;5002900;28;20449;-42
2022/06/29 09:26:41;;;;;;;10.80;3.20;;;;;;;;;;4999430;28;20180;-42
2022/06/29 09:29:19;;;;;;;10.80;3.37;;;;;;;;;;5006373;28;20188;-42
2022/06/29 09:31:45;;;;;;;15.23;3.50;;;;;;;;;;5011820;28;20190;-41
2022/06/29 09:34:20;;;;;;;11.47;3.50;;;;;;;;;;5008415;28;20180;-41
2022/06/29 09:36:56;;;;;;;13.00;3.80;;;;;;;;;;5009919;28;20980;-41
2022/06/29 09:39:36;;;;;;;8.90;3.37;;;;;;;;;;5014097;28;20472;-39
2022/06/29 09:42:02;;;;;;;10.40;3.10;;;;;;;;;;5012092;28;20375;-41
2022/06/29 09:44:28;;;;;;;11.03;3.30;;;;;;;;;;5007246;28;20390;-41
2022/06/29 09:46:55;;;;;;;15.27;3.70;;;;;;;;;;5008724;28;20188;-44
2022/06/29 09:49:25;;;;;;;10.30;3.23;;;;;;;;;;5013588;28;20172;-40
2022/06/29 09:51:59;;;;;;;11.03;3.90;;;;;;;;;;5012930;28;20215;-42
2022/06/29 09:54:26;;;;;;;10.30;3.57;;;;;;;;;;5008313;28;20203;-43
2022/06/29 09:56:53;;;;;;;10.87;2.97;;;;;;;;;;5012946;28;20281;-42
2022/06/29 09:59:22;;;;;;;14.53;3.97;;;;;;;;;;5008602;28;20199;-43
2022/06/29 10:04:34;;;;;;;11.03;3.53;;;;;;;;;;5013683;28;20206;-41
2022/06/29 10:07:01;;;;;;;12.20;4.00;;;;;;;;;;5006935;28;20453;-41
2022/06/29 10:09:27;;;;;;;14.50;3.60;;;;;;;;;;5000939;28;20181;-41
2022/06/29 10:14:43;;;;;;;13.27;4.00;;;;;;;;;;5001175;28;20195;-43
2022/06/29 10:17:13;;;;;;;10.30;3.40;;;;;;;;;;4999144;28;20191;-43
2022/06/29 10:19:57;;;;;;;10.40;4.10;;;;;;;;;;4998949;28;20494;-43
2022/06/29 10:22:23;;;;;;;12.33;3.87;;;;;;;;;;5000724;28;20258;-43
2022/06/29 10:25:07;;;;;;;15.17;3.90;;;;;;;;;;5010627;28;20843;-42
2022/06/29 10:27:33;;;;;;;12.23;3.80;;;;;;;;;;5006425;28;20172;-42
2022/06/29 10:30:18;;;;;;;11.03;4.10;;;;;;;;;;5009374;28;20313;-42
2022/06/29 10:32:44;;;;;;;13.43;4.30;;;;;;;;;;5002567;28;20180;-41
2022/06/29 10:35:10;;;;;;;14.63;4.43;;;;;;;;;;4997692;28;20192;-42
2022/06/29 10:37:48;;;;;;;10.83;3.97;;;;;;;;;;4999933;28;20191;-43
2022/06/29 10:40:21;;;;;;;12.87;3.80;;;;;;;;;;5001999;28;20624;-41
2022/06/29 10:45:36;;;;;;;14.03;4.20;;;;;;;;;;5002877;28;20227;-42
2022/06/29 10:48:06;;;;;;;14.03;4.27;;;;;;;;;;5013775;28;20510;-41
2022/06/29 10:50:32;;;;;;;14.47;4.23;;;;;;;;;;5018507;28;20261;-42
2022/06/29 10:53:03;;;;;;;12.13;3.90;;;;;;;;;;5014992;28;20192;-42
2022/06/29 10:55:30;;;;;;;12.40;3.60;;;;;;;;;;5015657;28;20191;-42
2022/06/29 10:57:56;;;;;;;12.30;3.47;;;;;;;;;;5015309;28;20249;-42
2022/06/29 11:00:24;;;;;;;10.93;4.07;;;;;;;;;;5015128;28;20172;-40
2022/06/29 11:02:50;;;;;;;13.50;4.13;;;;;;;;;;5015361;28;20681;-42
2022/06/29 11:05:16;;;;;;;12.33;3.70;;;;;;;;;;5007439;28;20605;-42
2022/06/29 11:13:27;;;;;;;11.80;3.93;;;;;;;;;;5014336;28;20178;-41
2022/06/29 11:15:54;;;;;;;14.63;3.90;;;;;;;;;;5015059;28;20429;-42
2022/06/29 11:18:23;;;;;;;11.90;4.17;;;;;;;;;;5018269;28;20692;-42
2022/06/29 11:20:50;;;;;;;16.73;3.87;;;;;;;;;;5015069;28;20183;-42
2022/06/29 11:23:17;;;;;;;13.73;4.07;;;;;;;;;;5015848;28;20176;-42
2022/06/29 11:25:47;;;;;;;10.17;3.63;;;;;;;;;;5017002;28;20433;-42
2022/06/29 11:28:17;;;;;;;13.90;4.03;;;;;;;;;;5011322;28;20176;-42
2022/06/29 11:30:56;;;;;;;11.80;3.80;;;;;;;;;;5012305;28;20909;-42
2022/06/29 11:33:26;;;;;;;14.33;4.03;;;;;;;;;;5014385;28;20212;-42
2022/06/29 11:35:53;;;;;;;14.23;3.90;;;;;;;;;;5011684;28;20180;-42
2022/06/29 11:38:19;;;;;;;13.90;4.13;;;;;;;;;;5016926;28;20609;-42
2022/06/29 11:40:49;;;;;;;15.17;3.90;;;;;;;;;;5017035;28;20176;-42
2022/06/29 11:43:15;;;;;;;10.40;3.83;;;;;;;;;;5013071;28;20245;-42
2022/06/29 11:45:46;;;;;;;14.13;4.00;;;;;;;;;;5014989;28;20176;-43
2022/06/29 11:48:12;;;;;;;9.37;3.73;;;;;;;;;;5016305;28;20203;-42
2022/06/29 11:51:07;;;;;;;13.10;4.00;;;;;;;;;;5013433;28;20176;-42
2022/06/29 11:53:39;;;;;;;11.93;3.50;;;;;;;;;;5004383;28;20643;-42
2022/06/29 11:56:13;;;;;;;12.90;3.80;;;;;;;;;;5015602;28;20821;-42
2022/06/29 11:58:40;;;;;;;13.33;3.70;;;;;;;;;;5011880;28;20464;-42
2022/06/29 12:01:16;;;;;;;12.23;3.40;;;;;;;;;;5016234;28;20644;-42
2022/06/29 12:03:49;;;;;;;11.90;3.87;;;;;;;;;;5016011;28;20320;-42
2022/06/29 12:06:15;;;;;;;12.50;3.17;;;;;;;;;;5013360;28;20584;-42
2022/06/29 12:08:42;;;;;;;13.07;3.67;;;;;;;;;;5014159;28;20187;-41
2022/06/29 12:11:08;;;;;;;9.90;3.27;;;;;;;;;;5014880;28;20304;-41
2022/06/29 12:13:34;;;;;;;11.10;3.50;;;;;;;;;;5013045;28;20235;-41
2022/06/29 12:16:00;;;;;;;12.40;4.07;;;;;;;;;;5011333;28;20188;-43
2022/06/29 12:18:26;;;;;;;14.77;4.17;;;;;;;;;;5016428;28;20344;-41
2022/06/29 12:20:52;;;;;;;11.57;3.87;;;;;;;;;;5009889;28;20419;-41
2022/06/29 12:23:18;;;;;;;16.50;3.97;;;;;;;;;;5014143;28;20172;-41
2022/06/29 12:25:45;;;;;;;15.77;4.17;;;;;;;;;;5015692;28;20605;-42
2022/06/29 12:28:11;;;;;;;10.67;3.87;;;;;;;;;;5010554;28;20470;-42
2022/06/29 12:30:38;;;;;;;10.77;3.40;;;;;;;;;;5011221;28;20322;-42
2022/06/29 12:33:06;;;;;;;12.37;3.90;;;;;;;;;;5012806;28;20598;-42
2022/06/29 12:35:32;;;;;;;12.43;3.93;;;;;;;;;;5013455;28;20176;-43
2022/06/29 12:37:58;;;;;;;11.80;3.47;;;;;;;;;;5011909;28;20693;-42
2022/06/29 12:40:25;;;;;;;14.03;4.03;;;;;;;;;;5013041;28;20290;-42
2022/06/29 12:42:52;;;;;;;9.70;3.60;;;;;;;;;;5015429;28;20189;-42
2022/06/29 12:45:18;;;;;;;11.17;3.37;;;;;;;;;;5011927;28;20698;-42
2022/06/29 12:47:44;;;;;;;13.90;3.87;;;;;;;;;;5011919;28;20178;-42
2022/06/29 12:50:10;;;;;;;10.60;4.07;;;;;;;;;;5012897;28;20463;-43
2022/06/29 12:52:40;;;;;;;17.13;4.03;;;;;;;;;;5010653;28;20623;-43
2022/06/29 12:55:07;;;;;;;12.43;3.50;;;;;;;;;;5013878;28;20704;-44
2022/06/29 12:57:33;;;;;;;10.57;3.30;;;;;;;;;;5015640;28;20183;-42
2022/06/29 12:59:59;;;;;;;11.57;4.00;;;;;;;;;;5009472;28;20205;-44
2022/06/29 13:02:26;;;;;;;13.87;4.20;;;;;;;;;;5011606;28;20205;-41
2022/06/29 13:04:52;;;;;;;9.57;3.43;;;;;;;;;;5013868;28;20191;-41
2022/06/29 13:07:18;;;;;;;9.27;3.10;;;;;;;;;;5011488;28;20839;-43
2022/06/29 13:09:44;;;;;;;12.43;3.40;;;;;;;;;;5012958;28;20218;-42
2022/06/29 13:12:10;;;;;;;11.27;3.53;;;;;;;;;;5011124;28;20435;-43
2022/06/29 13:14:36;;;;;;;12.73;3.80;;;;;;;;;;5000045;28;20541;-42
2022/06/29 13:17:02;;;;;;;13.73;3.67;;;;;;;;;;4996530;28;20198;-42
2022/06/29 13:19:29;;;;;;;8.23;3.17;;;;;;;;;;4997405;28;20211;-42
2022/06/29 13:21:55;;;;;;;12.77;3.40;;;;;;;;;;4999039;28;20692;-42
2022/06/29 13:24:21;;;;;;;13.23;4.00;;;;;;;;;;5003093;28;20257;-42
2022/06/29 13:26:47;;;;;;;13.03;3.37;;;;;;;;;;5005264;28;20168;-42
2022/06/29 13:29:13;;;;;;;10.30;3.60;;;;;;;;;;5008579;28;20378;-42
2022/06/29 13:31:41;;;;;;;7.93;3.50;;;;;;;;;;5008563;28;20384;-42
2022/06/29 13:34:08;;;;;;;10.83;3.87;;;;;;;;;;5009505;28;20288;-41
2022/06/29 13:36:34;;;;;;;11.17;3.70;;;;;;;;;;5014287;28;20897;-42
2022/06/29 13:39:00;;;;;;;10.60;3.60;;;;;;;;;;5011473;28;20192;-42
2022/06/29 13:41:26;;;;;;;8.83;3.20;;;;;;;;;;5009819;28;20419;-42
2022/06/29 13:43:52;;;;;;;12.73;3.50;;;;;;;;;;5008906;28;20257;-43
2022/06/29 13:46:18;;;;;;;8.27;3.23;;;;;;;;;;5001436;28;20179;-42
2022/06/29 13:48:44;;;;;;;13.17;4.50;;;;;;;;;;4999912;28;20188;-43
2022/06/29 13:51:10;;;;;;;10.37;3.43;;;;;;;;;;5002684;28;20453;-42
2022/06/29 13:53:37;;;;;;;10.33;3.50;;;;;;;;;;5004197;28;20483;-42
2022/06/29 13:56:04;;;;;;;13.63;4.03;;;;;;;;;;5007460;28;20192;-42
2022/06/29 13:58:30;;;;;;;9.60;3.43;;;;;;;;;;5007410;28;20215;-42
2022/06/29 14:00:56;;;;;;;11.93;3.80;;;;;;;;;;5011825;28;20204;-41
2022/06/29 14:03:22;;;;;;;7.63;2.87;;;;;;;;;;5010225;28;20376;-42
2022/06/29 14:05:51;;;;;;;9.83;3.50;;;;;;;;;;5009812;28;20191;-42
2022/06/29 14:08:17;;;;;;;12.40;3.30;;;;;;;;;;5011190;28;20176;-42
2022/06/29 14:10:43;;;;;;;10.70;3.60;;;;;;;;;;5007518;28;20392;-42
2022/06/29 14:13:09;;;;;;;11.50;3.70;;;;;;;;;;5003128;28;20671;-42
2022/06/29 14:15:35;;;;;;;10.17;3.20;;;;;;;;;;5012298;28;20171;-42
2022/06/29 14:18:01;;;;;;;11.70;3.23;;;;;;;;;;5010069;28;20230;-42
2022/06/29 14:20:27;;;;;;;14.17;3.57;;;;;;;;;;5011320;28;20175;-42
2022/06/29 14:22:53;;;;;;;8.73;3.27;;;;;;;;;;5005585;28;20667;-42
2022/06/29 14:25:21;;;;;;;8.97;3.43;;;;;;;;;;5001082;28;20215;-41
2022/06/29 14:27:48;;;;;;;8.90;3.17;;;;;;;;;;4999866;28;20465;-41
2022/06/29 14:30:14;;;;;;;13.63;3.53;;;;;;;;;;5004871;28;20813;-42
2022/06/29 14:32:43;;;;;;;9.03;3.13;;;;;;;;;;5004279;28;20184;-42
2022/06/29 14:35:10;;;;;;;8.57;3.43;;;;;;;;;;5001807;28;20510;-42
2022/06/29 14:37:36;;;;;;;11.10;3.40;;;;;;;;;;5004819;28;20989;-42
2022/06/29 14:40:03;;;;;;;11.33;3.70;;;;;;;;;;5004283;28;20294;-42
2022/06/29 14:42:29;;;;;;;11.47;3.70;;;;;;;;;;5002180;28;20332;-42
2022/06/29 14:44:56;;;;;;;8.20;3.33;;;;;;;;;;5005512;28;20499;-43
2022/06/29 14:47:22;;;;;;;11.63;3.50;;;;;;;;;;5010310;28;20626;-42
2022/06/29 14:49:48;;;;;;;16.00;4.27;;;;;;;;;;5003404;28;20189;-40
2022/06/29 14:52:14;;;;;;;10.50;3.40;;;;;;;;;;5006551;28;20933;-41
2022/06/29 14:54:41;;;;;;;9.37;3.80;;;;;;;;;;4999274;28;20189;-41
2022/06/29 14:57:07;;;;;;;10.60;3.70;;;;;;;;;;4995742;28;20183;-40